Time;durP1;ratioP1;P1;durP2;ratioP2;P2;SDS_P1;SDS_P2;PMS_P1;PMS_P2;Temp;Humidity;BMP_temperature;BMP_pressure;BME280_temperature;BME280_humidity;BME280_pressure;Samples;Min_cycle;Max_cycle;Signal;HPM_P1;HPM_P2
2022/12/07 00:02:14;;;;;;;16.98;9.02;;;;;;;4.21;100.00;101641.63;5089522;28;20035;-68
2022/12/07 00:04:39;;;;;;;19.13;10.20;;;;;;;4.17;100.00;101637.63;5090082;28;20475;-68
2022/12/07 00:07:07;;;;;;;11.98;8.23;;;;;;;4.14;100.00;101644.13;5092217;28;20106;-68
2022/12/07 00:09:33;;;;;;;14.88;8.77;;;;;;;4.07;100.00;101643.94;5091943;28;20502;-68
2022/12/07 00:11:58;;;;;;;11.82;8.57;;;;;;;4.06;100.00;101647.63;5091933;28;20120;-68
2022/12/07 00:14:23;;;;;;;17.30;9.20;;;;;;;4.04;100.00;101640.75;5090733;28;20028;-68
2022/12/07 00:16:50;;;;;;;14.57;8.65;;;;;;;4.02;100.00;101638.25;5090970;28;20107;-68
2022/12/07 00:19:16;;;;;;;12.38;8.52;;;;;;;4.02;100.00;101624.03;5092150;28;20035;-68
2022/12/07 00:21:42;;;;;;;14.60;8.18;;;;;;;4.00;100.00;101632.22;5091822;28;20044;-68
2022/12/07 00:24:07;;;;;;;14.52;8.52;;;;;;;3.97;100.00;101623.66;5090842;28;20039;-68
2022/12/07 00:26:35;;;;;;;13.48;8.65;;;;;;;3.96;100.00;101627.34;5091900;28;20085;-68
2022/12/07 00:29:05;;;;;;;15.60;8.80;;;;;;;3.97;100.00;101626.31;5093277;28;20044;-68
2022/12/07 00:31:34;;;;;;;13.60;8.57;;;;;;;3.93;100.00;101625.81;5094679;28;20390;-68
2022/12/07 00:34:01;;;;;;;14.10;8.52;;;;;;;3.95;100.00;101620.31;5094506;28;20368;-68
2022/12/07 00:36:26;;;;;;;13.02;7.88;;;;;;;3.93;100.00;101620.47;5095163;28;20115;-68
2022/12/07 00:38:52;;;;;;;12.05;8.63;;;;;;;3.91;100.00;101614.44;5095670;28;20453;-68
2022/12/07 00:41:20;;;;;;;12.02;7.90;;;;;;;3.94;100.00;101619.47;5095777;28;20070;-68
2022/12/07 00:43:47;;;;;;;11.13;8.38;;;;;;;3.93;100.00;101615.13;5094200;28;20035;-68
2022/12/07 00:46:14;;;;;;;9.88;7.80;;;;;;;3.87;100.00;101613.91;5094254;28;20429;-68
2022/12/07 00:48:40;;;;;;;11.13;7.88;;;;;;;3.88;100.00;101620.09;5094501;28;20035;-68
2022/12/07 00:51:07;;;;;;;13.18;8.23;;;;;;;3.86;100.00;101616.75;5095367;28;20038;-68
2022/12/07 00:53:36;;;;;;;11.95;7.63;;;;;;;3.90;100.00;101618.13;5093876;28;20064;-68
2022/12/07 00:56:07;;;;;;;12.07;7.63;;;;;;;3.86;100.00;101616.75;5093939;28;20379;-68
2022/12/07 00:58:32;;;;;;;15.15;7.95;;;;;;;3.91;100.00;101625.16;5095295;28;20039;-68
2022/12/07 01:01:01;;;;;;;10.95;7.47;;;;;;;3.87;100.00;101621.94;5092759;28;20020;-68
2022/12/07 01:03:27;;;;;;;12.02;7.40;;;;;;;3.89;100.00;101617.28;5093214;28;20024;-68
2022/12/07 01:05:54;;;;;;;10.48;7.68;;;;;;;3.86;100.00;101617.59;5092338;28;20043;-68
2022/12/07 01:08:20;;;;;;;9.23;6.90;;;;;;;3.85;100.00;101620.44;5094975;28;20048;-68
2022/12/07 01:10:46;;;;;;;9.98;6.88;;;;;;;3.80;100.00;101614.72;5094999;28;20035;-68
2022/12/07 01:13:11;;;;;;;13.52;7.30;;;;;;;3.79;100.00;101615.72;5093687;28;20024;-68
2022/12/07 01:15:42;;;;;;;9.63;6.70;;;;;;;3.77;100.00;101617.72;5094676;28;20024;-68
2022/12/07 01:18:08;;;;;;;10.60;7.20;;;;;;;3.75;100.00;101607.19;5094889;28;20459;-68
2022/12/07 01:20:33;;;;;;;12.02;7.90;;;;;;;3.77;100.00;101615.06;5093679;28;20039;-68
2022/12/07 01:22:59;;;;;;;11.38;7.03;;;;;;;3.77;100.00;101607.84;5093602;28;20040;-68
2022/12/07 01:25:24;;;;;;;11.13;6.53;;;;;;;3.73;100.00;101611.88;5094643;28;20027;-68
2022/12/07 01:27:49;;;;;;;7.65;6.38;;;;;;;3.75;100.00;101619.75;5094780;28;20031;-68
2022/12/07 01:30:14;;;;;;;12.40;6.97;;;;;;;3.74;100.00;101613.53;5094593;28;20020;-68
2022/12/07 01:32:40;;;;;;;11.70;7.10;;;;;;;3.78;100.00;101614.06;5093769;28;20036;-68
2022/12/07 01:35:05;;;;;;;9.38;6.72;;;;;;;3.81;100.00;101616.41;5092764;28;20028;-68
2022/12/07 01:37:38;;;;;;;15.05;6.90;;;;;;;3.81;100.00;101619.09;5094259;28;20024;-68
2022/12/07 01:40:07;;;;;;;10.93;6.95;;;;;;;3.83;100.00;101615.22;5094442;28;20089;-68
2022/12/07 01:42:34;;;;;;;10.35;7.18;;;;;;;3.82;100.00;101626.97;5093991;28;20035;-68
2022/12/07 01:45:17;;;;;;;11.65;7.68;;;;;;;3.83;100.00;101630.47;5093103;28;20036;-68
2022/12/07 01:47:48;;;;;;;13.40;7.18;;;;;;;3.78;100.00;101624.78;5093719;28;20073;-68
2022/12/07 01:50:14;;;;;;;15.63;7.78;;;;;;;3.73;100.00;101623.41;5092929;28;20043;-68
2022/12/07 01:52:41;;;;;;;11.10;7.13;;;;;;;3.74;100.00;101624.25;5093648;28;20025;-68
2022/12/07 01:55:10;;;;;;;10.90;7.28;;;;;;;3.71;100.00;101617.38;5093384;28;20467;-68
2022/12/07 01:57:42;;;;;;;9.40;7.20;;;;;;;3.68;100.00;101614.19;5093905;28;20039;-68
2022/12/07 02:00:09;;;;;;;11.57;6.95;;;;;;;3.71;100.00;101614.72;5094071;28;20028;-68
2022/12/07 02:02:38;;;;;;;11.43;7.30;;;;;;;3.73;100.00;101611.88;5091069;28;20024;-68
2022/12/07 02:05:05;;;;;;;10.50;7.25;;;;;;;3.73;100.00;101607.34;5086880;28;20119;-68
2022/12/07 02:07:34;;;;;;;10.70;6.60;;;;;;;3.73;100.00;101610.03;5086742;28;20036;-68
2022/12/07 02:10:13;;;;;;;10.75;6.60;;;;;;;3.78;100.00;101600.69;5090607;28;20103;-68
2022/12/07 02:12:38;;;;;;;10.60;7.60;;;;;;;3.73;100.00;101602.00;5073549;28;20066;-68
2022/12/07 02:15:04;;;;;;;10.23;6.97;;;;;;;3.73;100.00;101607.34;5073312;28;20063;-68
2022/12/07 02:17:44;;;;;;;15.45;7.55;;;;;;;3.80;100.00;101612.06;5073304;28;20064;-68
2022/12/07 02:20:15;;;;;;;8.40;6.70;;;;;;;3.79;100.00;101610.38;5084010;28;20046;-68
2022/12/07 02:23:01;;;;;;;12.23;7.55;;;;;;;3.82;100.00;101604.69;5092434;28;20085;-68
2022/12/07 02:26:04;;;;;;;11.38;6.78;;;;;;;3.83;100.00;101609.06;5093402;28;20111;-68
2022/12/07 02:28:33;;;;;;;10.15;6.65;;;;;;;3.78;100.00;101604.19;5092992;28;20028;-68
2022/12/07 02:31:10;;;;;;;14.70;7.13;;;;;;;3.79;100.00;101611.22;5090192;28;20432;-68
2022/12/07 02:33:43;;;;;;;12.02;6.55;;;;;;;3.75;100.00;101601.00;5092235;28;20039;-68
2022/12/07 02:36:16;;;;;;;10.95;6.68;;;;;;;3.75;100.00;101601.84;5093376;28;20035;-68
2022/12/07 02:38:58;;;;;;;12.77;6.72;;;;;;;3.75;100.00;101595.66;5091650;28;20089;-68
2022/12/07 02:41:33;;;;;;;9.90;6.18;;;;;;;3.71;100.00;101606.69;5091013;28;20035;-68
2022/12/07 02:44:02;;;;;;;10.30;6.75;;;;;;;3.69;100.00;101600.63;5091950;28;20024;-68
2022/12/07 02:46:32;;;;;;;10.32;6.35;;;;;;;3.65;100.00;101598.44;5092573;28;20035;-68
2022/12/07 02:49:36;;;;;;;12.10;6.40;;;;;;;3.71;100.00;101603.16;5092877;28;20032;-68
2022/12/07 02:52:02;;;;;;;10.68;6.25;;;;;;;3.67;100.00;101605.31;5092580;28;20035;-68
2022/12/07 02:54:27;;;;;;;13.55;6.78;;;;;;;3.69;100.00;101599.81;5091804;28;20028;-67
2022/12/07 02:57:01;;;;;;;8.95;6.50;;;;;;;3.69;100.00;101600.63;5093062;28;20035;-68
2022/12/07 02:59:32;;;;;;;10.70;6.22;;;;;;;3.70;100.00;101606.84;5092455;28;20395;-68
2022/12/07 03:02:25;;;;;;;12.30;6.18;;;;;;;3.68;100.00;101604.31;5089909;28;20042;-68
2022/12/07 03:05:21;;;;;;;7.82;5.45;;;;;;;3.66;100.00;101606.31;5092523;28;20052;-68
2022/12/07 03:08:17;;;;;;;9.80;5.85;;;;;;;3.65;100.00;101607.28;5092659;28;20523;-68
2022/12/07 03:10:50;;;;;;;8.93;5.85;;;;;;;3.61;100.00;101607.78;5091144;28;20031;-68
2022/12/07 03:13:24;;;;;;;9.98;6.32;;;;;;;3.55;100.00;101606.59;5092926;28;20071;-68
2022/12/07 03:15:52;;;;;;;11.80;6.05;;;;;;;3.57;100.00;101609.13;5092373;28;20032;-68
2022/12/07 03:18:22;;;;;;;9.70;6.80;;;;;;;3.52;100.00;101607.75;5092737;28;20032;-68
2022/12/07 03:20:50;;;;;;;10.82;5.80;;;;;;;3.52;100.00;101601.56;5090835;28;20032;-68
2022/12/07 03:23:19;;;;;;;10.85;5.45;;;;;;;3.51;100.00;101602.56;5092717;28;20089;-68
2022/12/07 03:25:49;;;;;;;8.63;5.10;;;;;;;3.51;100.00;101599.88;5091140;28;20643;-68
2022/12/07 03:28:20;;;;;;;12.95;5.75;;;;;;;3.52;100.00;101588.19;5092646;28;20490;-68
2022/12/07 03:30:56;;;;;;;9.73;5.38;;;;;;;3.49;100.00;101594.69;5090853;28;20476;-68
2022/12/07 03:33:32;;;;;;;10.85;5.57;;;;;;;3.50;100.00;101591.03;5092609;28;20024;-68
2022/12/07 03:36:06;;;;;;;8.15;5.25;;;;;;;3.47;100.00;101596.69;5092582;28;20124;-68
2022/12/07 03:38:45;;;;;;;11.95;5.90;;;;;;;3.45;100.00;101604.03;5091846;28;20021;-68
2022/12/07 03:41:23;;;;;;;8.80;5.80;;;;;;;3.50;100.00;101600.88;5089303;28;20081;-68
2022/12/07 03:43:49;;;;;;;12.48;5.90;;;;;;;3.51;100.00;101599.88;5092282;28;20028;-68
2022/12/07 03:46:23;;;;;;;9.60;5.53;;;;;;;3.50;100.00;101593.72;5092476;28;20051;-68
2022/12/07 03:49:03;;;;;;;8.98;5.30;;;;;;;3.53;100.00;101595.19;5092181;28;20113;-68
2022/12/07 03:51:39;;;;;;;11.23;6.03;;;;;;;3.51;100.00;101591.84;5072149;28;20086;-68
2022/12/07 03:54:15;;;;;;;12.77;6.38;;;;;;;3.50;100.00;101598.19;5072481;28;20109;-68
2022/12/07 03:56:43;;;;;;;14.05;5.70;;;;;;;3.50;100.00;101596.38;5083244;28;20036;-68
2022/12/07 03:59:09;;;;;;;10.63;5.70;;;;;;;3.50;100.00;101598.19;5089803;28;20039;-68
2022/12/07 04:01:35;;;;;;;8.65;5.32;;;;;;;3.53;100.00;101605.91;5089429;28;20024;-68
2022/12/07 04:04:00;;;;;;;8.30;5.28;;;;;;;3.56;100.00;101600.22;5093569;28;20379;-68
2022/12/07 04:06:25;;;;;;;7.38;5.18;;;;;;;3.56;100.00;101600.22;5096342;28;20028;-68
2022/12/07 04:08:50;;;;;;;11.52;5.45;;;;;;;3.55;100.00;101594.06;5095726;28;20080;-68
2022/12/07 04:11:16;;;;;;;9.18;5.35;;;;;;;3.56;100.00;101586.84;5095173;28;20386;-68
2022/12/07 04:16:25;;;;;;;8.93;5.50;;;;;;;3.59;100.00;101588.38;5095833;28;20035;-68
2022/12/07 04:18:50;;;;;;;13.05;5.10;;;;;;;3.60;100.00;101588.22;5096081;28;20028;-68
2022/12/07 04:21:15;;;;;;;10.68;5.32;;;;;;;3.61;100.00;101591.72;5094336;28;20052;-68
2022/12/07 04:23:41;;;;;;;9.05;5.60;;;;;;;3.60;100.00;101598.09;5095743;28;20489;-68
2022/12/07 04:26:06;;;;;;;11.82;5.63;;;;;;;3.60;100.00;101592.75;5094620;28;20032;-68
2022/12/07 04:28:32;;;;;;;9.85;5.72;;;;;;;3.62;100.00;101590.72;5095425;28;20040;-68
2022/12/07 04:30:57;;;;;;;8.15;5.50;;;;;;;3.67;100.00;101589.25;5093419;28;20422;-68
2022/12/07 04:33:22;;;;;;;7.60;5.50;;;;;;;3.71;100.00;101581.72;5095766;28;20190;-68
2022/12/07 04:35:47;;;;;;;8.75;5.43;;;;;;;3.73;100.00;101583.25;5095195;28;20040;-68
2022/12/07 04:38:13;;;;;;;11.75;5.43;;;;;;;3.72;100.00;101578.88;5095613;28;20122;-68
2022/12/07 04:40:38;;;;;;;9.85;5.53;;;;;;;3.73;100.00;101575.22;5092558;28;20486;-68
2022/12/07 04:43:04;;;;;;;8.93;5.40;;;;;;;3.76;100.00;101573.22;5095524;28;20049;-68
2022/12/07 04:45:30;;;;;;;13.27;5.70;;;;;;;3.76;100.00;101574.06;5093560;28;20478;-68
2022/12/07 04:47:55;;;;;;;10.77;6.20;;;;;;;3.78;100.00;101582.75;5095238;28;20107;-68
2022/12/07 04:50:20;;;;;;;11.43;5.18;;;;;;;3.80;100.00;101578.06;5095004;28;20042;-68
2022/12/07 04:52:46;;;;;;;9.32;5.28;;;;;;;3.80;100.00;101578.06;5082862;28;20029;-68
2022/12/07 04:55:11;;;;;;;10.85;5.53;;;;;;;3.81;100.00;101581.63;5087351;28;20459;-68
2022/12/07 04:57:36;;;;;;;8.88;5.82;;;;;;;3.81;100.00;101581.63;5095121;28;20098;-68
2022/12/07 05:00:02;;;;;;;12.10;5.80;;;;;;;3.79;100.00;101575.56;5095074;28;20039;-68
2022/12/07 05:02:28;;;;;;;12.75;5.93;;;;;;;3.79;100.00;101579.09;5092551;28;20505;-68
2022/12/07 05:04:53;;;;;;;10.95;5.97;;;;;;;3.80;100.00;101563.88;5093613;28;20115;-68
2022/12/07 05:07:18;;;;;;;10.73;6.55;;;;;;;3.81;100.00;101571.72;5094815;28;20032;-68
2022/12/07 05:09:44;;;;;;;11.35;5.88;;;;;;;3.80;100.00;101569.22;5093883;28;20437;-68
2022/12/07 05:12:09;;;;;;;15.25;5.90;;;;;;;3.81;100.00;101565.56;5094996;28;20059;-68
2022/12/07 05:14:34;;;;;;;10.32;5.50;;;;;;;3.81;100.00;101565.56;5090250;28;20032;-68
2022/12/07 05:16:59;;;;;;;13.77;5.97;;;;;;;3.83;100.00;101564.38;5091379;28;20463;-68
2022/12/07 05:19:26;;;;;;;9.70;5.53;;;;;;;3.85;100.00;101573.09;5094800;28;20043;-68
2022/12/07 05:21:51;;;;;;;15.65;5.68;;;;;;;3.86;100.00;101568.56;5094150;28;20044;-68
2022/12/07 05:24:17;;;;;;;8.35;5.40;;;;;;;3.87;100.00;101567.56;5094727;28;20028;-68
2022/12/07 05:26:43;;;;;;;9.85;5.50;;;;;;;3.89;100.00;101569.09;5093195;28;20460;-68
2022/12/07 05:29:12;;;;;;;10.20;5.30;;;;;;;3.91;100.00;101560.91;5093387;28;20024;-68
2022/12/07 05:31:37;;;;;;;6.97;5.40;;;;;;;3.93;100.00;101566.91;5091674;28;20383;-68
2022/12/07 05:34:02;;;;;;;8.45;5.22;;;;;;;3.91;100.00;101566.25;5094864;28;20044;-68
2022/12/07 05:36:30;;;;;;;9.02;5.03;;;;;;;3.91;100.00;101560.91;5094582;28;20028;-68
2022/12/07 05:38:56;;;;;;;8.75;4.15;;;;;;;3.90;100.00;101560.03;5094223;28;20024;-68
2022/12/07 05:44:18;;;;;;;8.30;4.40;;;;;;;3.88;100.00;101564.72;5070984;28;20101;-68
2022/12/07 05:46:44;;;;;;;8.27;4.43;;;;;;;3.85;100.00;101557.03;5094166;28;20028;-68
2022/12/07 05:49:09;;;;;;;10.35;4.18;;;;;;;3.83;100.00;101564.38;5094118;28;20036;-68
2022/12/07 05:51:34;;;;;;;7.22;4.05;;;;;;;3.80;100.00;101563.88;5092705;28;20046;-68
2022/12/07 05:53:59;;;;;;;7.22;4.00;;;;;;;3.79;100.00;101562.19;5094400;28;20035;-68
2022/12/07 05:56:26;;;;;;;9.70;4.20;;;;;;;3.77;100.00;101554.31;5092487;28;20073;-68
2022/12/07 06:01:35;;;;;;;7.95;4.15;;;;;;;3.66;100.00;101558.13;5089129;28;20051;-68
2022/12/07 06:04:01;;;;;;;8.25;3.83;;;;;;;3.60;100.00;101555.28;5093871;28;20111;-68
2022/12/07 06:06:26;;;;;;;8.25;4.07;;;;;;;3.58;100.00;101554.56;5094024;28;20032;-68
2022/12/07 06:08:51;;;;;;;10.68;5.20;;;;;;;3.57;100.00;101561.78;5093701;28;20061;-68
2022/12/07 06:14:00;;;;;;;8.15;4.38;;;;;;;3.54;100.00;101556.75;5093307;28;20123;-67
2022/12/07 06:16:26;;;;;;;11.65;4.82;;;;;;;3.54;100.00;101564.78;5093488;28;20114;-68
2022/12/07 06:18:51;;;;;;;11.35;4.38;;;;;;;3.51;100.00;101570.44;5093759;28;20508;-68
2022/12/07 06:21:17;;;;;;;9.50;4.50;;;;;;;3.41;100.00;101569.72;5091931;28;20098;-68
2022/12/07 06:23:42;;;;;;;8.35;4.20;;;;;;;3.37;100.00;101577.25;5093457;28;20036;-68
2022/12/07 06:26:07;;;;;;;9.48;4.63;;;;;;;3.39;100.00;101566.38;5091378;28;20032;-68
2022/12/07 06:28:32;;;;;;;7.07;3.88;;;;;;;3.34;100.00;101562.34;5093359;28;20114;-68
2022/12/07 06:30:59;;;;;;;8.13;4.43;;;;;;;3.28;100.00;101563.00;5092509;28;20039;-68
2022/12/07 06:33:25;;;;;;;11.52;4.55;;;;;;;3.29;100.00;101566.50;5092423;28;20032;-68
2022/12/07 06:35:50;;;;;;;10.77;4.45;;;;;;;3.34;100.00;101565.03;5093237;28;20038;-68
2022/12/07 06:38:15;;;;;;;9.38;4.68;;;;;;;3.34;100.00;101570.38;5092061;28;20066;-68
2022/12/07 06:40:40;;;;;;;8.18;4.20;;;;;;;3.35;100.00;101572.06;5090879;28;20028;-68
2022/12/07 06:43:06;;;;;;;7.28;4.10;;;;;;;3.37;100.00;101567.38;5093481;28;20027;-68
2022/12/07 06:45:31;;;;;;;10.60;4.80;;;;;;;3.41;100.00;101575.91;5093062;28;20051;-68
2022/12/07 06:47:56;;;;;;;11.50;4.32;;;;;;;3.44;100.00;101569.41;5092906;28;20480;-68
2022/12/07 06:50:21;;;;;;;9.80;4.50;;;;;;;3.46;100.00;101572.78;5091981;28;20036;-68
2022/12/07 06:52:47;;;;;;;9.15;4.28;;;;;;;3.44;100.00;101574.75;5092943;28;20440;-68
2022/12/07 06:55:12;;;;;;;10.88;4.82;;;;;;;3.45;100.00;101566.56;5092433;28;20028;-68
2022/12/07 06:57:37;;;;;;;9.48;4.43;;;;;;;3.47;100.00;101569.09;5093062;28;20602;-68
2022/12/07 07:00:03;;;;;;;9.98;4.57;;;;;;;3.49;100.00;101569.78;5090562;28;20531;-68
2022/12/07 07:02:29;;;;;;;10.85;4.50;;;;;;;3.49;100.00;101567.09;5081512;28;20028;-68
2022/12/07 07:04:54;;;;;;;7.70;4.32;;;;;;;3.48;100.00;101573.44;5080246;28;20035;-68
2022/12/07 07:07:19;;;;;;;7.63;4.30;;;;;;;3.46;100.00;101570.09;5092944;28;20097;-68
2022/12/07 07:09:44;;;;;;;11.20;4.75;;;;;;;3.43;100.00;101565.03;5092595;28;20471;-68
2022/12/07 07:12:10;;;;;;;12.38;4.35;;;;;;;3.40;100.00;101568.03;5092841;28;20122;-68
2022/12/07 07:14:36;;;;;;;8.50;4.65;;;;;;;3.39;100.00;101571.75;5091770;28;20425;-68
2022/12/07 07:17:01;;;;;;;8.60;4.65;;;;;;;3.34;100.00;101574.91;5090969;28;20028;-68
2022/12/07 07:19:27;;;;;;;7.93;4.32;;;;;;;3.36;100.00;101578.25;5091416;28;20024;-68
2022/12/07 07:21:52;;;;;;;8.02;4.40;;;;;;;3.37;100.00;101570.06;5091402;28;20048;-67
2022/12/07 07:24:17;;;;;;;8.75;4.53;;;;;;;3.39;100.00;101577.91;5091291;28;20379;-68
2022/12/07 07:26:42;;;;;;;9.88;4.68;;;;;;;3.37;100.00;101580.75;5092667;28;20123;-68
2022/12/07 07:29:08;;;;;;;10.38;4.43;;;;;;;3.39;100.00;101579.75;5091041;28;20115;-68
2022/12/07 07:31:35;;;;;;;8.02;4.30;;;;;;;3.40;100.00;101578.75;5092593;28;20032;-68
2022/12/07 07:34:00;;;;;;;10.73;4.88;;;;;;;3.41;100.00;101575.09;5091488;28;20038;-68
2022/12/07 07:36:26;;;;;;;8.75;4.53;;;;;;;3.45;100.00;101573.78;5091822;28;20028;-68
2022/12/07 07:38:51;;;;;;;12.65;5.00;;;;;;;3.46;100.00;101587.00;5095042;28;20116;-68
2022/12/07 07:41:16;;;;;;;9.80;4.95;;;;;;;3.45;100.00;101576.44;5096774;28;20481;-68
2022/12/07 07:43:41;;;;;;;13.07;5.13;;;;;;;3.45;100.00;101584.47;5095152;28;20119;-68
2022/12/07 07:46:07;;;;;;;10.45;4.53;;;;;;;3.41;100.00;101580.44;5094788;28;20043;-68
2022/12/07 07:48:32;;;;;;;8.00;4.53;;;;;;;3.37;100.00;101588.78;5095317;28;20067;-68
2022/12/07 07:50:57;;;;;;;15.70;5.15;;;;;;;3.35;100.00;101579.22;5095367;28;20043;-68
2022/12/07 07:53:22;;;;;;;12.63;4.43;;;;;;;3.32;100.00;101583.06;5094991;28;20031;-68
2022/12/07 07:55:53;;;;;;;12.32;5.22;;;;;;;3.29;100.00;101578.03;5094613;28;20038;-68
2022/12/07 07:58:18;;;;;;;9.45;4.55;;;;;;;3.30;100.00;101585.06;5095099;28;20364;-68
2022/12/07 08:00:43;;;;;;;11.48;4.78;;;;;;;3.32;100.00;101580.41;5093798;28;20031;-68
2022/12/07 08:03:09;;;;;;;12.15;6.13;;;;;;;3.34;100.00;101582.91;5095818;28;20024;-68
2022/12/07 08:05:36;;;;;;;10.13;5.07;;;;;;;3.33;100.00;101581.22;5094815;28;20110;-69
2022/12/07 08:08:02;;;;;;;12.35;4.80;;;;;;;3.29;100.00;101583.41;5095104;28;20111;-71
2022/12/07 08:10:27;;;;;;;9.90;4.35;;;;;;;3.32;100.00;101588.44;5096176;28;20116;-69
2022/12/07 08:13:11;;;;;;;12.77;4.50;;;;;;;3.31;100.00;101592.09;5094647;28;20514;-69
2022/12/07 08:15:39;;;;;;;9.32;5.75;;;;;;;3.26;100.00;101591.75;5095470;28;20035;-69
2022/12/07 08:18:04;;;;;;;12.48;7.10;;;;;;;3.23;100.00;101591.19;5094501;28;20114;-69
2022/12/07 08:20:32;;;;;;;9.32;4.90;;;;;;;3.21;100.00;101591.34;5094658;28;20040;-69
2022/12/07 08:22:57;;;;;;;9.00;4.30;;;;;;;3.23;100.00;101594.72;5094741;28;20425;-68
2022/12/07 08:25:22;;;;;;;9.77;4.15;;;;;;;3.26;100.00;101605.13;5094523;28;20122;-69
2022/12/07 08:27:48;;;;;;;9.85;4.70;;;;;;;3.28;100.00;101599.59;5091566;28;20043;-69
2022/12/07 08:30:13;;;;;;;13.73;4.72;;;;;;;3.30;100.00;101601.09;5092601;28;20155;-69
2022/12/07 08:32:39;;;;;;;9.60;4.40;;;;;;;3.34;100.00;101601.66;5095379;28;20093;-69
2022/12/07 08:35:04;;;;;;;11.50;5.43;;;;;;;3.36;100.00;101608.50;5093314;28;20436;-69
2022/12/07 08:37:31;;;;;;;14.50;6.80;;;;;;;3.43;100.00;101610.53;5095064;28;20032;-69
2022/12/07 08:39:56;;;;;;;12.82;6.00;;;;;;;3.43;100.00;101610.53;5095505;28;20356;-69
2022/12/07 08:42:23;;;;;;;11.75;5.53;;;;;;;3.44;100.00;101617.56;5090980;28;20032;-70
2022/12/07 08:44:48;;;;;;;12.38;5.57;;;;;;;3.48;100.00;101617.09;5093567;28;20032;-69
2022/12/07 08:47:14;;;;;;;13.02;6.93;;;;;;;3.51;100.00;101614.09;5085505;28;20429;-68
2022/12/07 08:49:43;;;;;;;15.27;7.10;;;;;;;3.52;100.00;101620.31;5113065;28;20527;-69
2022/12/07 08:52:08;;;;;;;14.50;7.50;;;;;;;3.57;100.00;101611.78;5108381;28;20040;-69
2022/12/07 08:54:36;;;;;;;15.48;6.90;;;;;;;3.61;100.00;101613.13;5092710;28;20051;-69
2022/12/07 08:57:03;;;;;;;12.50;6.07;;;;;;;3.64;100.00;101608.31;5094909;28;20032;-69
2022/12/07 08:59:28;;;;;;;10.57;5.03;;;;;;;3.68;100.00;101609.69;5095298;28;20031;-69
2022/12/07 09:01:54;;;;;;;13.23;5.75;;;;;;;3.73;100.00;101602.00;5091553;28;20158;-69
2022/12/07 09:04:20;;;;;;;14.60;5.22;;;;;;;3.75;100.00;101601.84;5079750;28;20041;-69
2022/12/07 09:06:46;;;;;;;13.15;5.40;;;;;;;3.77;100.00;101602.50;5074609;28;20081;-69
2022/12/07 09:09:13;;;;;;;13.85;5.82;;;;;;;3.77;100.00;101601.66;5089530;28;20028;-69
2022/12/07 09:11:39;;;;;;;9.95;5.00;;;;;;;3.79;100.00;101599.66;5094168;28;20032;-70
2022/12/07 09:14:05;;;;;;;15.05;5.75;;;;;;;3.77;100.00;101588.28;5093935;28;20497;-69
2022/12/07 09:16:30;;;;;;;11.77;5.00;;;;;;;3.81;100.00;101597.69;5093560;28;20028;-70
2022/12/07 09:18:55;;;;;;;11.80;4.88;;;;;;;3.89;100.00;101595.00;5093308;28;20383;-69
2022/12/07 20:43:59;;;;;;;6.38;3.08;;;;;;;3.66;100.00;101129.06;5122171;27;20415;-67
2022/12/07 20:46:24;;;;;;;7.35;3.42;;;;;;;3.67;100.00;101126.22;5091982;28;20032;-67
2022/12/07 20:48:50;;;;;;;8.88;3.67;;;;;;;3.69;100.00;101126.03;5085895;28;20471;-68
2022/12/07 20:51:16;;;;;;;9.00;3.83;;;;;;;3.69;100.00;101123.38;5090049;28;20456;-69
2022/12/07 20:53:41;;;;;;;7.60;3.88;;;;;;;3.70;100.00;101123.19;5089297;28;20029;-70
2022/12/07 20:56:06;;;;;;;9.32;3.65;;;;;;;3.73;100.00;101127.38;5089461;28;20039;-70
2022/12/07 20:58:32;;;;;;;10.82;4.03;;;;;;;3.75;100.00;101120.00;5089095;28;20025;-71
2022/12/07 21:01:01;;;;;;;9.05;3.42;;;;;;;3.72;100.00;101121.16;5085701;28;20070;-70
2022/12/07 21:03:26;;;;;;;6.00;2.95;;;;;;;3.72;100.00;101118.50;5084816;28;20029;-70
2022/12/07 21:05:52;;;;;;;5.78;3.10;;;;;;;3.73;100.00;101109.47;5080384;28;20506;-70
2022/12/07 21:08:17;;;;;;;6.25;2.70;;;;;;;3.71;100.00;101105.28;5093922;28;20050;-71
2022/12/07 21:10:42;;;;;;;8.80;3.08;;;;;;;3.72;100.00;101107.78;5089000;28;20365;-71
2022/12/07 21:13:08;;;;;;;7.65;3.05;;;;;;;3.74;100.00;101104.94;5089328;28;20040;-71
2022/12/07 21:15:33;;;;;;;4.35;2.72;;;;;;;3.73;100.00;101105.97;5089756;28;20036;-70
2022/12/07 21:17:58;;;;;;;5.35;2.80;;;;;;;3.75;100.00;101108.47;5089412;28;20035;-71
2022/12/07 21:20:24;;;;;;;5.00;2.53;;;;;;;3.71;100.00;101102.59;5088822;28;20107;-70
2022/12/07 21:22:49;;;;;;;7.05;2.50;;;;;;;3.70;100.00;101099.09;5086550;28;20065;-69
2022/12/07 21:25:14;;;;;;;9.25;3.08;;;;;;;3.69;100.00;101102.78;5086995;28;20028;-69
2022/12/07 21:27:40;;;;;;;8.45;3.03;;;;;;;3.67;100.00;101087.91;5089145;28;20043;-69
2022/12/07 21:30:05;;;;;;;3.97;2.33;;;;;;;3.67;100.00;101098.63;5087613;28;20036;-69
2022/12/07 21:32:31;;;;;;;5.43;2.75;;;;;;;3.69;100.00;101089.41;5079520;28;20028;-69
2022/12/07 21:34:56;;;;;;;7.18;2.60;;;;;;;3.69;100.00;101080.53;5102262;28;20399;-69
2022/12/07 21:37:21;;;;;;;4.72;2.67;;;;;;;3.68;100.00;101087.75;5103285;28;20040;-69
2022/12/07 21:39:47;;;;;;;7.93;2.70;;;;;;;3.67;100.00;101080.72;5087013;28;20037;-69
2022/12/07 21:42:12;;;;;;;11.38;3.03;;;;;;;3.71;100.00;101083.88;5088952;28;20607;-69
2022/12/07 21:44:37;;;;;;;6.20;3.10;;;;;;;3.68;100.00;101079.72;5088865;28;20035;-69
2022/12/07 21:47:03;;;;;;;3.78;2.40;;;;;;;3.69;100.00;101081.38;5101313;28;20120;-69
2022/12/07 21:49:28;;;;;;;5.90;2.80;;;;;;;3.72;100.00;101085.53;5109303;28;20024;-69
2022/12/07 21:51:53;;;;;;;3.28;2.50;;;;;;;3.70;100.00;101084.91;5108596;28;20020;-70
2022/12/07 21:54:19;;;;;;;3.72;2.20;;;;;;;3.71;100.00;101079.38;5087785;28;20123;-69
2022/12/07 21:56:44;;;;;;;5.43;2.50;;;;;;;3.69;100.00;101084.03;5084149;28;20024;-69
2022/12/07 21:59:13;;;;;;;4.88;2.67;;;;;;;3.67;100.00;101078.03;5063851;28;20122;-69
2022/12/07 22:01:40;;;;;;;5.07;2.50;;;;;;;3.65;100.00;101073.84;5072493;28;20031;-70
2022/12/07 22:04:07;;;;;;;5.75;2.45;;;;;;;3.67;100.00;101074.53;5075308;28;20096;-69
2022/12/07 22:06:34;;;;;;;8.00;3.22;;;;;;;3.70;100.00;101072.34;5071490;28;20025;-69
2022/12/07 22:08:59;;;;;;;7.32;2.80;;;;;;;3.70;100.00;101072.34;5072991;28;20040;-69
2022/12/07 22:11:25;;;;;;;5.65;3.15;;;;;;;3.70;100.00;101072.34;5075135;28;20381;-69
2022/12/07 22:16:34;;;;;;;8.27;4.65;;;;;;;3.72;100.00;101066.81;5067486;28;20453;-68
2022/12/07 22:19:00;;;;;;;8.95;6.18;;;;;;;3.73;100.00;101065.81;5075061;28;20036;-69
2022/12/07 22:21:26;;;;;;;10.35;6.22;;;;;;;3.69;100.00;101070.66;5073837;28;20387;-68
2022/12/07 22:23:51;;;;;;;9.98;6.43;;;;;;;3.67;100.00;101064.66;5074639;28;20036;-69
2022/12/07 22:26:17;;;;;;;11.20;7.05;;;;;;;3.64;100.00;101053.44;5074563;28;20020;-69
2022/12/07 22:28:43;;;;;;;12.80;7.68;;;;;;;3.65;100.00;101055.94;5074713;28;20029;-69
2022/12/07 22:31:11;;;;;;;12.43;8.35;;;;;;;3.68;100.00;101054.78;5073647;28;20035;-69
2022/12/07 22:33:36;;;;;;;13.60;8.20;;;;;;;3.65;100.00;101050.59;5074706;28;20032;-68
2022/12/07 22:36:03;;;;;;;13.82;8.40;;;;;;;3.66;100.00;101054.94;5071918;28;20031;-69
2022/12/07 22:38:28;;;;;;;13.27;8.88;;;;;;;3.67;100.00;101045.91;5074587;28;20032;-69
2022/12/07 22:40:54;;;;;;;13.93;9.43;;;;;;;3.66;100.00;101038.88;5074392;28;20407;-69
2022/12/07 22:43:20;;;;;;;16.27;9.25;;;;;;;3.67;100.00;101035.22;5074471;28;20419;-69
2022/12/07 22:45:56;;;;;;;16.95;10.30;;;;;;;3.70;100.00;101040.22;5073994;28;20104;-69
2022/12/07 22:48:22;;;;;;;13.48;9.77;;;;;;;3.64;100.00;101024.88;5073353;28;20032;-69
2022/12/07 22:50:47;;;;;;;15.00;10.35;;;;;;;3.62;100.00;101021.50;5074217;28;20037;-69
2022/12/07 22:53:12;;;;;;;15.25;10.68;;;;;;;3.65;100.00;101010.44;5074478;28;20024;-69
2022/12/07 22:55:41;;;;;;;14.52;11.73;;;;;;;3.62;100.00;101012.66;5070382;28;20036;-69
2022/12/07 22:58:06;;;;;;;16.25;10.98;;;;;;;3.59;100.00;101005.81;5059933;28;20039;-69